Time;durP1;ratioP1;P1;durP2;ratioP2;P2;SDS_P1;SDS_P2;PMS_P1;PMS_P2;Temp;Humidity;BMP_temperature;BMP_pressure;BME280_temperature;BME280_humidity;BME280_pressure;Samples;Min_cycle;Max_cycle;Signal;HPM_P1;HPM_P2
2023/04/08 00:02:37;;;;;;;;;;;4.00;99.90;;;;;;6279969;22;19968;-86
2023/04/08 00:07:43;;;;;;;;;;;4.30;99.90;;;;;;6307582;22;19915;-86
2023/04/08 00:10:25;;;;;;;;;;;2.90;99.90;;;;;;6278649;22;20375;-86
2023/04/08 00:12:50;;;;;;;;;;;3.70;99.90;;;;;;6280389;22;20255;-87
2023/04/08 00:15:16;;;;;;;;;;;4.90;99.90;;;;;;6280201;22;19915;-86
2023/04/08 00:17:42;;;;;;;;;;;3.70;99.90;;;;;;6278552;22;20264;-86
2023/04/08 00:20:07;;;;;;;;;;;3.70;99.90;;;;;;6307522;22;19950;-86
2023/04/08 00:22:36;;;;;;;;;;;3.70;99.90;;;;;;6280186;22;20044;-86
2023/04/08 00:25:01;;;;;;;;;;;3.60;99.90;;;;;;6278781;22;19953;-86
2023/04/08 00:27:36;;;;;;;;;;;3.60;99.90;;;;;;6278533;22;19958;-87
2023/04/08 00:30:02;;;;;;;;;;;3.40;99.90;;;;;;6308678;22;20207;-86
2023/04/08 00:32:28;;;;;;;;;;;3.60;99.90;;;;;;6307758;22;19915;-86
2023/04/08 00:35:03;;;;;;;;;;;3.50;99.90;;;;;;6280145;22;19929;-87
2023/04/08 00:37:28;;;;;;;;;;;3.50;99.90;;;;;;6314400;22;19919;-87
2023/04/08 00:39:54;;;;;;;;;;;4.70;99.90;;;;;;6308216;22;20380;-87
2023/04/08 00:42:23;;;;;;;;;;;3.50;99.90;;;;;;6280105;22;19915;-87
2023/04/08 00:44:48;;;;;;;;;;;3.40;99.90;;;;;;6298469;22;19921;-87
2023/04/08 00:47:15;;;;;;;;;;;3.30;99.90;;;;;;6297196;22;20527;-86
2023/04/08 00:49:41;;;;;;;;;;;3.20;99.90;;;;;;6279725;22;19960;-87
2023/04/08 00:52:13;;;;;;;;;;;4.50;99.90;;;;;;6307700;22;19917;-86
2023/04/08 00:54:38;;;;;;;;;;;3.70;99.90;;;;;;6280125;22;19914;-86
2023/04/08 00:57:13;;;;;;;;;;;3.60;99.90;;;;;;6279557;22;19921;-87
2023/04/08 00:59:39;;;;;;;;;;;3.00;99.90;;;;;;6279258;22;20327;-86
2023/04/08 01:02:26;;;;;;;;;;;2.90;99.90;;;;;;6279774;22;19919;-86
2023/04/08 01:04:55;;;;;;;;;;;3.10;99.90;;;;;;6280146;22;19915;-86
2023/04/08 01:07:25;;;;;;;;;;;3.10;99.90;;;;;;6279229;22;20285;-87
2023/04/08 01:13:16;;;;;;;;;;;4.20;99.90;;;;;;6306252;22;19913;-86
2023/04/08 01:15:43;;;;;;;;;;;3.30;99.90;;;;;;6307717;22;19915;-86
2023/04/08 01:18:16;;;;;;;;;;;3.80;99.90;;;;;;6280014;22;20375;-86
2023/04/08 01:20:52;;;;;;;;;;;4.50;99.90;;;;;;6279128;22;19914;-86
2023/04/08 01:23:36;;;;;;;;;;;3.80;99.90;;;;;;6279738;22;19918;-86
2023/04/08 01:26:21;;;;;;;;;;;3.90;99.90;;;;;;6279396;22;19960;-86
2023/04/08 01:28:58;;;;;;;;;;;3.10;99.90;;;;;;6307018;22;20319;-86
2023/04/08 01:31:55;;;;;;;;;;;3.10;99.90;;;;;;6281594;22;19915;-86
2023/04/08 01:34:21;;;;;;;;;;;3.10;99.90;;;;;;6308660;22;19915;-86
2023/04/08 01:36:59;;;;;;;;;;;3.30;99.90;;;;;;6309529;22;19994;-86
2023/04/08 01:39:25;;;;;;;;;;;3.10;99.90;;;;;;6309312;22;19914;-86
2023/04/08 01:42:01;;;;;;;;;;;2.90;99.90;;;;;;6308399;22;19914;-86
2023/04/08 01:44:27;;;;;;;;;;;3.00;99.90;;;;;;6309687;22;19990;-87
2023/04/08 01:46:55;;;;;;;;;;;2.90;99.90;;;;;;6281802;22;19960;-86
2023/04/08 01:49:36;;;;;;;;;;;3.00;99.90;;;;;;6302051;22;19915;-86
2023/04/08 01:52:15;;;;;;;;;;;2.80;99.90;;;;;;6308964;22;19915;-86
2023/04/08 01:54:40;;;;;;;;;;;3.20;99.90;;;;;;6309376;22;19918;-87
2023/04/08 01:57:10;;;;;;;;;;;3.10;99.90;;;;;;6280519;22;19938;-87
2023/04/08 01:59:37;;;;;;;;;;;2.40;99.90;;;;;;6281763;22;19927;-85
2023/04/08 02:02:09;;;;;;;;;;;2.80;99.90;;;;;;6280577;22;19998;-87
2023/04/08 02:04:35;;;;;;;;;;;2.90;99.90;;;;;;6310690;22;20002;-86
2023/04/08 02:07:01;;;;;;;;;;;2.70;99.90;;;;;;6286236;22;19922;-87
2023/04/08 02:09:27;;;;;;;;;;;3.90;99.90;;;;;;6307372;22;19931;-86
2023/04/08 02:11:52;;;;;;;;;;;2.90;99.90;;;;;;6309659;22;19918;-86
2023/04/08 02:14:18;;;;;;;;;;;2.60;99.90;;;;;;6285439;22;19965;-86
2023/04/08 02:17:31;;;;;;;;;;;2.60;99.90;;;;;;6307162;22;20248;-87
2023/04/08 02:20:28;;;;;;;;;;;2.60;99.90;;;;;;6189087;23;19915;-87
2023/04/08 02:23:08;;;;;;;;;;;2.80;99.90;;;;;;6214357;23;19919;-87
2023/04/08 02:25:36;;;;;;;;;;;2.70;99.90;;;;;;6213888;23;19923;-86
2023/04/08 02:28:17;;;;;;;;;;;2.80;99.90;;;;;;6239028;22;19915;-87
2023/04/08 02:30:47;;;;;;;;;;;2.70;99.90;;;;;;6308053;22;19921;-86
2023/04/08 02:33:13;;;;;;;;;;;2.60;99.90;;;;;;6306523;22;19918;-86
2023/04/08 02:35:39;;;;;;;;;;;2.50;99.90;;;;;;6309050;22;19968;-87
2023/04/08 02:38:05;;;;;;;;;;;2.70;99.90;;;;;;6307121;22;20018;-86
2023/04/08 02:40:36;;;;;;;;;;;2.70;99.90;;;;;;6280648;22;19914;-86
2023/04/08 02:43:15;;;;;;;;;;;4.20;99.90;;;;;;6308649;22;20226;-86
2023/04/08 02:45:41;;;;;;;;;;;2.70;99.90;;;;;;6254946;22;19914;-86
2023/04/08 02:48:10;;;;;;;;;;;2.70;99.90;;;;;;6280925;22;19915;-86
2023/04/08 02:50:36;;;;;;;;;;;2.60;99.90;;;;;;6281240;22;20291;-86
2023/04/08 02:53:02;;;;;;;;;;;2.20;99.90;;;;;;6309145;22;19946;-87
2023/04/08 02:55:27;;;;;;;;;;;2.40;99.90;;;;;;6302349;22;19922;-86
2023/04/08 02:57:53;;;;;;;;;;;2.60;99.90;;;;;;6318146;22;19914;-86
2023/04/08 03:00:18;;;;;;;;;;;2.40;99.90;;;;;;6306141;22;19958;-86
2023/04/08 03:02:54;;;;;;;;;;;;;;;;;;;;;
2023/04/08 03:05:26;;;;;;;;;;;2.50;99.90;;;;;;6306796;22;19914;-87
2023/04/08 03:08:16;;;;;;;;;;;2.50;99.90;;;;;;6308756;22;19961;-86
2023/04/08 03:10:42;;;;;;;;;;;2.50;99.90;;;;;;6280431;22;19961;-86
2023/04/08 03:13:10;;;;;;;;;;;2.50;99.90;;;;;;6307193;22;19915;-86
2023/04/08 03:15:35;;;;;;;;;;;2.40;99.90;;;;;;6308650;22;19930;-86
2023/04/08 03:18:02;;;;;;;;;;;2.40;99.90;;;;;;6280381;22;20036;-86
2023/04/08 03:20:28;;;;;;;;;;;3.60;99.90;;;;;;6280236;22;19923;-86
2023/04/08 03:25:30;;;;;;;;;;;2.40;99.90;;;;;;6305691;22;20238;-86
2023/04/08 03:28:11;;;;;;;;;;;3.90;99.90;;;;;;6278368;22;19915;-86
2023/04/08 03:30:39;;;;;;;;;;;2.10;99.90;;;;;;6280495;22;20296;-86
2023/04/08 03:33:06;;;;;;;;;;;3.20;99.90;;;;;;6307903;22;19915;-86
2023/04/08 03:35:32;;;;;;;;;;;2.10;99.90;;;;;;6310869;22;19918;-86
2023/04/08 03:38:09;;;;;;;;;;;2.40;99.90;;;;;;6301924;22;19945;-86
2023/04/08 03:40:35;;;;;;;;;;;2.50;99.90;;;;;;6309244;22;19922;-87
2023/04/08 03:43:11;;;;;;;;;;;2.10;99.90;;;;;;6307867;22;19915;-86
2023/04/08 03:45:36;;;;;;;;;;;2.40;99.90;;;;;;6285045;22;20354;-86
2023/04/08 03:48:02;;;;;;;;;;;2.40;99.90;;;;;;6279787;22;19917;-86
2023/04/08 03:50:27;;;;;;;;;;;2.40;99.90;;;;;;6308397;22;19985;-86
2023/04/08 03:52:53;;;;;;;;;;;2.80;99.90;;;;;;6307950;22;19953;-86
2023/04/08 03:55:19;;;;;;;;;;;3.80;99.90;;;;;;6307151;22;19915;-86
2023/04/08 03:57:44;;;;;;;;;;;2.50;99.90;;;;;;6307948;22;19915;-86
2023/04/08 04:00:10;;;;;;;;;;;2.50;99.90;;;;;;6308105;22;19957;-86
2023/04/08 04:02:36;;;;;;;;;;;2.50;99.90;;;;;;6307049;22;19954;-86
2023/04/08 04:05:01;;;;;;;;;;;2.60;99.90;;;;;;6306331;22;19915;-86
2023/04/08 04:07:27;;;;;;;;;;;3.70;99.90;;;;;;6307536;22;19917;-86
2023/04/08 04:10:02;;;;;;;;;;;3.40;99.90;;;;;;6277367;22;19921;-86
2023/04/08 04:12:27;;;;;;;;;;;2.60;99.90;;;;;;6280421;22;19989;-86
2023/04/08 04:15:02;;;;;;;;;;;2.60;99.90;;;;;;6309309;22;19921;-86
2023/04/08 04:17:27;;;;;;;;;;;3.20;99.90;;;;;;6307165;22;19946;-86
2023/04/08 04:19:53;;;;;;;;;;;2.80;99.90;;;;;;6280210;22;19917;-86
2023/04/08 04:22:18;;;;;;;;;;;2.70;99.90;;;;;;6308397;22;19918;-86
2023/04/08 04:24:53;;;;;;;;;;;2.40;99.90;;;;;;6307108;22;19977;-86
2023/04/08 04:27:19;;;;;;;;;;;2.60;99.90;;;;;;6307644;22;19915;-86
2023/04/08 04:30:02;;;;;;;;;;;2.30;99.90;;;;;;6279647;22;19985;-86
2023/04/08 04:32:28;;;;;;;;;;;2.50;99.90;;;;;;6307996;22;19968;-86
2023/04/08 04:34:53;;;;;;;;;;;2.40;99.90;;;;;;6308030;22;19914;-86
2023/04/08 04:37:22;;;;;;;;;;;2.50;99.90;;;;;;6279984;22;19915;-87
2023/04/08 04:39:47;;;;;;;;;;;2.70;99.90;;;;;;6308550;22;20221;-86
2023/04/08 04:42:28;;;;;;;;;;;2.50;99.90;;;;;;6280375;22;19918;-86
2023/04/08 04:44:55;;;;;;;;;;;3.20;99.90;;;;;;6280484;22;20250;-86
2023/04/08 04:47:26;;;;;;;;;;;3.20;99.90;;;;;;6308655;22;19918;-86
2023/04/08 04:49:52;;;;;;;;;;;2.60;99.90;;;;;;6308228;22;19990;-86
2023/04/08 04:52:30;;;;;;;;;;;3.40;99.90;;;;;;6279073;22;19943;-86
2023/04/08 04:54:58;;;;;;;;;;;1.90;99.90;;;;;;6307694;22;19954;-87
2023/04/08 04:57:24;;;;;;;;;;;2.70;99.90;;;;;;6280245;22;20003;-86
2023/04/08 04:59:50;;;;;;;;;;;2.90;99.90;;;;;;6307437;22;19985;-85
2023/04/08 05:02:15;;;;;;;;;;;4.80;99.90;;;;;;6279972;22;19914;-86
2023/04/08 05:04:41;;;;;;;;;;;2.60;99.90;;;;;;6309400;22;19915;-86
2023/04/08 05:07:06;;;;;;;;;;;2.80;99.90;;;;;;6309641;22;19961;-86
2023/04/08 05:09:53;;;;;;;;;;;2.90;99.90;;;;;;6315988;22;19918;-86
2023/04/08 05:12:21;;;;;;;;;;;2.90;99.90;;;;;;6310459;22;19963;-86
2023/04/08 05:14:47;;;;;;;;;;;2.90;99.90;;;;;;6286553;22;20044;-86
2023/04/08 05:17:12;;;;;;;;;;;3.70;99.90;;;;;;6315769;22;19915;-86
2023/04/08 05:19:38;;;;;;;;;;;2.90;99.90;;;;;;6309884;22;19948;-86
2023/04/08 05:22:03;;;;;;;;;;;3.00;99.90;;;;;;6309479;22;19915;-86
2023/04/08 05:24:42;;;;;;;;;;;3.80;99.90;;;;;;6311590;22;19918;-86
2023/04/08 05:27:07;;;;;;;;;;;3.10;99.90;;;;;;6308647;22;19915;-86
2023/04/08 05:29:33;;;;;;;;;;;2.80;99.90;;;;;;6309908;22;20167;-86
2023/04/08 05:39:04;;;;;;;;;;;4.00;99.90;;;;;;6253640;22;20041;-85
2023/04/08 05:41:30;;;;;;;;;;;3.00;99.90;;;;;;6309534;22;20051;-86
2023/04/08 05:43:55;;;;;;;;;;;2.90;99.90;;;;;;6281855;22;19921;-86
2023/04/08 05:46:27;;;;;;;;;;;3.00;99.90;;;;;;6282631;22;19984;-86
2023/04/08 05:48:53;;;;;;;;;;;3.10;99.90;;;;;;6308936;22;19918;-86
2023/04/08 05:51:18;;;;;;;;;;;2.90;99.90;;;;;;6309573;22;19915;-86
2023/04/08 05:53:45;;;;;;;;;;;3.00;99.90;;;;;;6282382;22;19981;-86
2023/04/08 05:56:25;;;;;;;;;;;3.20;99.90;;;;;;6284617;22;20338;-86
2023/04/08 05:58:57;;;;;;;;;;;3.10;99.90;;;;;;6310857;22;19919;-86
2023/04/08 06:01:23;;;;;;;;;;;4.50;99.90;;;;;;6284691;22;19915;-86
2023/04/08 06:03:55;;;;;;;;;;;3.30;99.90;;;;;;6309369;22;19914;-86
2023/04/08 06:06:20;;;;;;;;;;;3.10;99.90;;;;;;6282889;22;19993;-86
2023/04/08 06:08:46;;;;;;;;;;;4.30;99.90;;;;;;6312025;22;19915;-86
2023/04/08 06:11:11;;;;;;;;;;;3.60;99.90;;;;;;6281499;22;19915;-86
2023/04/08 06:13:37;;;;;;;;;;;3.60;99.90;;;;;;6281902;22;19922;-86
2023/04/08 06:16:09;;;;;;;;;;;3.70;99.90;;;;;;6307927;22;19915;-85
2023/04/08 06:18:35;;;;;;;;;;;2.90;99.90;;;;;;6309905;22;19950;-86
2023/04/08 06:21:01;;;;;;;;;;;4.60;99.90;;;;;;6308634;22;19919;-86
2023/04/08 06:23:26;;;;;;;;;;;4.10;99.90;;;;;;6282659;22;19915;-86
2023/04/08 06:26:04;;;;;;;;;;;3.90;99.90;;;;;;6287277;22;20271;-86
2023/04/08 06:28:30;;;;;;;;;;;4.30;99.90;;;;;;6282264;22;19914;-86
2023/04/08 06:31:10;;;;;;;;;;;5.60;99.90;;;;;;6307684;22;20230;-86
2023/04/08 06:33:36;;;;;;;;;;;4.00;99.90;;;;;;6309585;22;19956;-86
2023/04/08 06:36:02;;;;;;;;;;;4.50;99.90;;;;;;6313603;22;19903;-87
2023/04/08 06:38:43;;;;;;;;;;;4.50;99.90;;;;;;6313240;22;19915;-87
2023/04/08 06:41:09;;;;;;;;;;;5.70;99.90;;;;;;6308921;22;19911;-83
2023/04/08 06:43:54;;;;;;;;;;;5.70;99.90;;;;;;6311825;22;19968;-83
2023/04/08 06:46:35;;;;;;;;;;;4.40;99.90;;;;;;6320997;22;19915;-84
2023/04/08 06:49:26;;;;;;;;;;;5.10;99.90;;;;;;6281238;22;19915;-86
2023/04/08 06:52:05;;;;;;;;;;;5.00;99.90;;;;;;6308590;22;19982;-85
2023/04/08 06:54:34;;;;;;;;;;;5.00;99.90;;;;;;6309411;22;19968;-84
2023/04/08 06:57:03;;;;;;;;;;;4.90;99.90;;;;;;6308085;22;20294;-84
2023/04/08 06:59:29;;;;;;;;;;;4.80;99.90;;;;;;6280596;22;19921;-85
2023/04/08 07:02:04;;;;;;;;;;;4.70;99.90;;;;;;6281531;22;19988;-85
2023/04/08 07:04:29;;;;;;;;;;;5.10;99.90;;;;;;6307808;22;19972;-84
2023/04/08 07:07:25;;;;;;;;;;;6.30;99.90;;;;;;6308938;22;19919;-84
2023/04/08 07:12:26;;;;;;;;;;;5.10;99.90;;;;;;6305404;22;20235;-84
2023/04/08 07:15:04;;;;;;;;;;;5.20;99.90;;;;;;6281139;22;19962;-84
2023/04/08 07:17:29;;;;;;;;;;;5.30;99.90;;;;;;6308676;22;19982;-84
2023/04/08 07:20:01;;;;;;;;;;;6.10;99.90;;;;;;6279464;22;20271;-84
2023/04/08 07:22:26;;;;;;;;;;;5.20;99.90;;;;;;6280405;22;19915;-85
2023/04/08 07:25:01;;;;;;;;;;;5.90;99.90;;;;;;6280620;22;19922;-84
2023/04/08 07:27:36;;;;;;;;;;;6.90;99.90;;;;;;6306571;22;20325;-84
2023/04/08 07:30:22;;;;;;;;;;;5.50;99.90;;;;;;6279966;22;19968;-84
2023/04/08 07:32:57;;;;;;;;;;;5.60;99.90;;;;;;6279604;22;20242;-84
2023/04/08 07:35:25;;;;;;;;;;;5.80;99.90;;;;;;6307895;22;20398;-85
2023/04/08 07:37:57;;;;;;;;;;;5.90;99.90;;;;;;6280573;22;19911;-84
2023/04/08 07:40:40;;;;;;;;;;;5.40;99.90;;;;;;6279530;22;19915;-85
2023/04/08 07:43:07;;;;;;;;;;;6.00;99.90;;;;;;6279586;22;19928;-83
2023/04/08 07:45:33;;;;;;;;;;;6.50;99.90;;;;;;6280344;22;20345;-84
2023/04/08 07:47:59;;;;;;;;;;;6.00;99.90;;;;;;6279230;22;19915;-91
2023/04/08 07:50:24;;;;;;;;;;;6.00;99.90;;;;;;6279792;22;19915;-85
2023/04/08 07:52:52;;;;;;;;;;;5.70;99.90;;;;;;6308464;22;20024;-86
2023/04/08 07:55:33;;;;;;;;;;;6.10;99.90;;;;;;6280011;22;19915;-84
2023/04/08 07:58:02;;;;;;;;;;;6.90;99.90;;;;;;6307779;22;19914;-85
2023/04/08 08:00:36;;;;;;;;;;;6.20;99.90;;;;;;6280373;22;19922;-85
2023/04/08 08:03:08;;;;;;;;;;;6.30;99.90;;;;;;6306380;22;19915;-85
2023/04/08 08:05:49;;;;;;;;;;;6.40;99.90;;;;;;6310990;22;19968;-85
2023/04/08 08:08:14;;;;;;;;;;;6.60;99.90;;;;;;6279051;22;19928;-85
2023/04/08 08:10:52;;;;;;;;;;;6.50;99.90;;;;;;6280462;22;20332;-85
2023/04/08 08:13:20;;;;;;;;;;;7.80;99.90;;;;;;6286730;22;19914;-87
2023/04/08 08:15:52;;;;;;;;;;;6.90;99.90;;;;;;6247119;23;19947;-85
2023/04/08 08:18:24;;;;;;;;;;;6.90;99.90;;;;;;6290533;22;19915;-87
2023/04/08 08:21:00;;;;;;;;;;;6.30;99.90;;;;;;6307812;22;19923;-86
2023/04/08 08:23:26;;;;;;;;;;;6.70;99.90;;;;;;6304856;22;19950;-85
2023/04/08 08:25:58;;;;;;;;;;;6.50;99.90;;;;;;6280001;22;19937;-85
2023/04/08 08:28:32;;;;;;;;;;;6.70;99.90;;;;;;6280307;22;19915;-85
2023/04/08 08:31:13;;;;;;;;;;;6.80;99.90;;;;;;6278795;22;19916;-85
2023/04/08 08:33:54;;;;;;;;;;;6.80;99.90;;;;;;6306454;22;19922;-85
2023/04/08 08:40:18;;;;;;;;;;;7.00;99.90;;;;;;6307479;22;20234;-86
2023/04/08 08:43:08;;;;;;;;;;;7.30;99.90;;;;;;6305163;22;20029;-85
2023/04/08 08:45:58;;;;;;;;;;;7.30;99.90;;;;;;6280021;22;20227;-85
2023/04/08 08:48:32;;;;;;;;;;;8.60;99.90;;;;;;6307224;22;19976;-85
2023/04/08 08:50:58;;;;;;;;;;;7.50;99.90;;;;;;6278451;22;19938;-86
2023/04/08 08:53:30;;;;;;;;;;;7.30;99.90;;;;;;6280007;22;19984;-85
2023/04/08 08:56:14;;;;;;;;;;;7.00;99.90;;;;;;6305522;22;19910;-86
2023/04/08 08:58:40;;;;;;;;;;;7.50;99.90;;;;;;6306631;22;19914;-86
2023/04/08 09:04:32;;;;;;;;;;;7.60;99.90;;;;;;6306472;22;20025;-86
2023/04/08 09:07:20;;;;;;;;;;;8.00;99.90;;;;;;6306847;22;19914;-86
2023/04/08 09:10:08;;;;;;;;;;;7.30;99.90;;;;;;6278992;22;19915;-86
2023/04/08 09:12:57;;;;;;;;;;;6.90;99.90;;;;;;6280229;22;19921;-83
2023/04/08 09:19:18;;;;;;;;;;;7.70;99.90;;;;;;6092694;23;19965;-87
2023/04/08 09:22:02;;;;;;;;;;;8.00;99.90;;;;;;6094156;23;19964;-87
2023/04/08 09:24:48;;;;;;;;;;;7.90;99.90;;;;;;6250890;22;19915;-87
2023/04/08 09:27:13;;;;;;;;;;;8.10;99.90;;;;;;6274543;22;19923;-86
2023/04/08 09:30:19;;;;;;;;;;;7.90;99.90;;;;;;6274900;22;20232;-87
2023/04/08 09:33:11;;;;;;;;;;;8.40;99.90;;;;;;6275185;22;20346;-87
2023/04/08 09:35:53;;;;;;;;;;;8.70;99.90;;;;;;6254127;22;20010;-86
2023/04/08 09:38:27;;;;;;;;;;;8.50;99.90;;;;;;6250202;22;19916;-87
2023/04/08 09:40:53;;;;;;;;;;;8.10;99.90;;;;;;6243072;22;19915;-87
2023/04/08 09:43:22;;;;;;;;;;;9.70;99.90;;;;;;6252716;22;19920;-87
2023/04/08 09:45:51;;;;;;;;;;;8.40;99.90;;;;;;6287536;22;20376;31
2023/04/08 09:48:21;;;;;;;;;;;8.40;99.90;;;;;;6323369;22;19930;-87
2023/04/08 09:50:48;;;;;;;;;;;8.30;99.90;;;;;;6284627;22;20331;-87
2023/04/08 09:53:33;;;;;;;;;;;8.40;99.90;;;;;;6280621;22;19919;-87
2023/04/08 09:56:04;;;;;;;;;;;7.90;99.90;;;;;;6276050;22;19922;-86
2023/04/08 09:58:52;;;;;;;;;;;7.60;99.90;;;;;;6276441;22;20332;-85
2023/04/08 10:01:21;;;;;;;;;;;8.40;99.90;;;;;;6275656;22;20346;-87
2023/04/08 10:07:13;;;;;;;;;;;8.80;99.90;;;;;;6304818;22;20392;-86
2023/04/08 10:09:41;;;;;;;;;;;8.70;99.90;;;;;;6308331;22;19981;-86
2023/04/08 10:12:19;;;;;;;;;;;9.60;99.90;;;;;;6308352;22;20359;-86
2023/04/08 10:15:10;;;;;;;;;;;8.40;99.90;;;;;;6280211;22;19922;-86
2023/04/08 10:17:35;;;;;;;;;;;8.30;99.90;;;;;;6281190;22;19921;-86
2023/04/08 10:20:20;;;;;;;;;;;9.40;99.90;;;;;;6308283;22;19915;-86
2023/04/08 10:22:48;;;;;;;;;;;8.30;99.90;;;;;;6307761;22;19915;-86
2023/04/08 10:25:43;;;;;;;;;;;8.40;99.90;;;;;;6308257;22;19997;-86
2023/04/08 10:28:31;;;;;;;;;;;8.50;99.90;;;;;;6261334;22;20327;-86
2023/04/08 10:30:57;;;;;;;;;;;8.40;99.90;;;;;;6308398;22;19915;-86
2023/04/08 10:33:41;;;;;;;;;;;8.80;99.90;;;;;;6281007;22;19915;-86
2023/04/08 10:36:14;;;;;;;;;;;8.50;99.90;;;;;;6279980;22;19914;-86
2023/04/08 10:38:41;;;;;;;;;;;8.70;99.90;;;;;;6280778;22;20243;-86
2023/04/08 10:41:26;;;;;;;;;;;9.00;99.90;;;;;;6308312;22;20334;-86
2023/04/08 10:44:04;;;;;;;;;;;9.90;99.90;;;;;;6306663;22;19915;-86
2023/04/08 10:46:38;;;;;;;;;;;9.10;99.90;;;;;;6281366;22;19990;-86
2023/04/08 10:49:04;;;;;;;;;;;9.10;99.90;;;;;;6308142;22;20349;-86
2023/04/08 10:51:33;;;;;;;;;;;10.50;99.90;;;;;;6308022;22;19950;-86
2023/04/08 10:54:07;;;;;;;;;;;9.80;99.90;;;;;;6280531;22;19919;-86
2023/04/08 10:56:50;;;;;;;;;;;9.20;99.90;;;;;;6280852;22;19915;-86
2023/04/08 10:59:39;;;;;;;;;;;9.10;99.90;;;;;;6308620;22;19925;-86
2023/04/08 11:02:12;;;;;;;;;;;9.10;99.90;;;;;;6307731;22;20227;-86
2023/04/08 11:04:41;;;;;;;;;;;8.60;99.90;;;;;;6280865;22;19968;-85
2023/04/08 11:10:23;;;;;;;;;;;9.30;99.90;;;;;;6307088;22;19922;-85
2023/04/08 11:12:49;;;;;;;;;;;9.30;99.90;;;;;;6279848;22;19919;-86
2023/04/08 11:15:18;;;;;;;;;;;10.60;99.90;;;;;;6307463;22;19915;-86
2023/04/08 11:17:47;;;;;;;;;;;9.30;99.90;;;;;;6290974;22;19915;-85
2023/04/08 11:20:16;;;;;;;;;;;9.80;99.90;;;;;;6314634;22;19919;-86
2023/04/08 11:22:49;;;;;;;;;;;9.10;99.90;;;;;;6308391;22;19919;-86
2023/04/08 11:25:23;;;;;;;;;;;9.50;99.90;;;;;;6280258;22;19923;-86
2023/04/08 11:28:04;;;;;;;;;;;9.50;99.90;;;;;;6280605;22;20378;-84
2023/04/08 11:30:50;;;;;;;;;;;9.40;99.90;;;;;;6280509;22;19960;-85
2023/04/08 11:33:16;;;;;;;;;;;9.40;99.90;;;;;;6305377;22;19914;-81
2023/04/08 11:35:51;;;;;;;;;;;10.50;99.90;;;;;;6280554;22;19922;-81
2023/04/08 11:38:23;;;;;;;;;;;9.50;99.90;;;;;;6307390;22;19922;-84
2023/04/08 11:40:57;;;;;;;;;;;9.50;99.90;;;;;;6279933;22;20080;-84
2023/04/08 11:43:23;;;;;;;;;;;9.40;99.90;;;;;;6280406;22;19960;-84
2023/04/08 11:46:16;;;;;;;;;;;10.80;99.90;;;;;;6307807;22;19918;-85
2023/04/08 11:49:01;;;;;;;;;;;9.00;99.90;;;;;;6280630;22;20334;-85
2023/04/08 11:52:12;;;;;;;;;;;;;;;;;;;;;
2023/04/08 11:54:47;;;;;;;;;;;9.30;99.90;;;;;;6279561;22;19914;-86
2023/04/08 11:59:47;;;;;;;;;;;9.10;99.90;;;;;;6339673;22;20238;-85
2023/04/08 12:02:23;;;;;;;;;;;9.10;99.90;;;;;;6310393;22;20172;-86
2023/04/08 12:04:52;;;;;;;;;;;9.00;99.90;;;;;;6329192;22;20036;-86
2023/04/08 12:07:27;;;;;;;;;;;9.10;99.90;;;;;;6338191;22;20360;-85
2023/04/08 12:10:20;;;;;;;;;;;9.10;99.90;;;;;;6339262;22;19915;-85
2023/04/08 12:12:49;;;;;;;;;;;9.10;99.90;;;;;;6310637;22;20348;-85
2023/04/08 12:15:21;;;;;;;;;;;9.10;99.90;;;;;;6337823;22;19918;-86
2023/04/08 12:17:49;;;;;;;;;;;9.20;99.90;;;;;;6310454;22;20219;-85
2023/04/08 12:20:46;;;;;;;;;;;10.30;99.90;;;;;;6310085;22;19925;-86
2023/04/08 12:23:23;;;;;;;;;;;9.20;99.90;;;;;;6309240;22;19914;-85
2023/04/08 12:26:08;;;;;;;;;;;9.20;99.90;;;;;;6311090;22;19914;-86
2023/04/08 12:29:23;;;;;;;;;;;9.20;99.90;;;;;;6309292;22;19914;-85
2023/04/08 12:35:05;;;;;;;;;;;9.90;99.90;;;;;;6309696;22;19914;-85
2023/04/08 12:38:05;;;;;;;;;;;9.10;99.90;;;;;;6310968;22;19911;-86
2023/04/08 12:40:30;;;;;;;;;;;9.20;99.90;;;;;;6311061;22;19938;-85
2023/04/08 12:43:05;;;;;;;;;;;10.60;99.90;;;;;;6309633;22;20234;-86
2023/04/08 12:48:40;;;;;;;;;;;9.20;99.90;;;;;;6355650;22;19919;-86
2023/04/08 12:51:31;;;;;;;;;;;8.70;99.90;;;;;;6313101;22;19921;-86
2023/04/08 12:54:00;;;;;;;;;;;9.30;99.90;;;;;;6310859;22;20270;-86
2023/04/08 12:56:26;;;;;;;;;;;9.30;99.90;;;;;;6338702;22;19922;-86
2023/04/08 12:59:06;;;;;;;;;;;9.30;99.90;;;;;;6311339;22;19915;-86
2023/04/08 13:01:32;;;;;;;;;;;9.40;99.90;;;;;;6339403;22;19914;-86
2023/04/08 13:04:00;;;;;;;;;;;9.80;99.90;;;;;;6337303;22;19921;-86
2023/04/08 13:06:38;;;;;;;;;;;9.30;99.90;;;;;;6339255;22;20238;-86
2023/04/08 13:09:17;;;;;;;;;;;9.50;99.90;;;;;;6338090;22;19918;-87
2023/04/08 13:12:15;;;;;;;;;;;;;;;;;;;;;
2023/04/08 13:49:19;;;;;;;35.35;22.70;;;9.90;99.90;;;;;;5088994;27;20453;-85
2023/04/08 13:51:47;;;;;;;33.55;20.70;;;10.00;99.90;;;;;;5087229;28;20504;-84
2023/04/08 13:54:25;;;;;;;32.45;20.85;;;10.00;99.90;;;;;;5087354;28;20542;-84
2023/04/08 13:56:56;;;;;;;35.25;22.50;;;11.20;99.90;;;;;;5088209;28;20036;-85
2023/04/08 13:59:22;;;;;;;33.72;21.52;;;9.80;99.90;;;;;;5149952;22;20044;-84
2023/04/08 14:02:56;;;;;;;30.38;20.88;;;10.10;99.90;;;;;;5093741;23;20062;-84
2023/04/08 14:05:22;;;;;;;32.90;20.60;;;9.60;99.90;;;;;;5080361;28;20396;-85
2023/04/08 14:08:00;;;;;;;32.05;21.08;;;11.00;99.90;;;;;;5078202;28;20041;-84
2023/04/08 14:10:34;;;;;;;33.20;21.88;;;11.70;99.90;;;;;;5078360;28;20075;-84
2023/04/08 14:13:00;;;;;;;33.58;20.80;;;10.40;99.90;;;;;;5080003;28;20186;-83
2023/04/08 14:15:38;;;;;;;35.22;22.40;;;11.90;99.90;;;;;;5076570;28;20544;-83
2023/04/08 14:18:18;;;;;;;33.40;22.17;;;11.70;99.90;;;;;;5080085;28;20089;-83
2023/04/08 14:20:47;;;;;;;36.05;22.85;;;10.30;99.90;;;;;;5109311;28;20049;-83
2023/04/08 14:23:13;;;;;;;34.53;22.45;;;11.90;99.90;;;;;;5068940;28;20041;-83
2023/04/08 14:25:47;;;;;;;35.17;22.02;;;9.80;99.90;;;;;;5067777;28;20059;-82
2023/04/08 14:30:47;;;;;;;34.65;22.63;;;10.40;99.90;;;;;;5066099;28;20373;-82
2023/04/08 14:37:04;;;;;;;36.60;23.55;;;9.60;99.90;;;;;;5638670;23;20055;-82
2023/04/08 14:39:29;;;;;;;39.28;24.45;;;11.10;99.90;;;;;;5088693;28;20123;-82
2023/04/08 14:42:07;;;;;;;35.88;24.25;;;11.20;99.90;;;;;;5069768;28;20098;-83
2023/04/08 14:44:33;;;;;;;37.17;25.10;;;10.30;99.90;;;;;;5122778;22;20048;-83
2023/04/08 14:46:58;;;;;;;38.72;24.80;;;10.50;99.90;;;;;;5108962;28;20097;-83
2023/04/08 14:49:24;;;;;;;39.72;25.77;;;10.50;99.90;;;;;;5079908;28;20400;-83
2023/04/08 14:51:50;;;;;;;40.33;24.67;;;10.40;99.90;;;;;;5095716;28;20054;-83
2023/04/08 14:54:17;;;;;;;37.78;25.08;;;10.40;99.90;;;;;;5095118;28;20430;-83
2023/04/08 14:56:50;;;;;;;40.20;25.65;;;10.40;99.90;;;;;;5094670;28;20040;-85
2023/04/08 14:59:16;;;;;;;42.05;26.60;;;11.30;99.90;;;;;;5094879;28;20047;-85
2023/04/08 15:01:43;;;;;;;38.17;25.35;;;10.80;99.90;;;;;;5104161;28;20032;-85
2023/04/08 15:04:09;;;;;;;40.15;25.02;;;10.20;99.90;;;;;;5082543;28;20044;-85
2023/04/08 15:06:39;;;;;;;39.17;26.27;;;10.20;99.90;;;;;;5094278;28;20036;-85
2023/04/08 15:09:07;;;;;;;42.00;28.73;;;10.30;99.90;;;;;;5075953;28;20089;-85
2023/04/08 15:11:58;;;;;;;48.28;31.08;;;10.40;99.90;;;;;;5093794;28;20060;-85
2023/04/08 15:14:39;;;;;;;44.65;29.95;;;10.20;99.90;;;;;;5076378;28;20139;-87
2023/04/08 15:17:20;;;;;;;42.70;27.98;;;10.30;99.90;;;;;;5075424;28;20054;-86
2023/04/08 15:22:33;;;;;;;44.80;29.52;;;10.30;99.90;;;;;;4375353;26;20063;-86
2023/04/08 15:25:11;;;;;;;45.03;29.30;;;10.90;99.90;;;;;;5083357;23;20109;-86
2023/04/08 15:27:58;;;;;;;46.30;29.63;;;10.20;99.90;;;;;;5032480;28;20053;-86
2023/04/08 15:30:25;;;;;;;47.50;30.05;;;9.60;99.90;;;;;;5015882;28;20044;-86
2023/04/08 15:33:15;;;;;;;42.90;28.67;;;10.70;99.90;;;;;;4997977;28;20208;-86
2023/04/08 15:36:02;;;;;;;45.30;28.45;;;10.20;99.90;;;;;;5015793;28;20049;-86
2023/04/08 15:38:32;;;;;;;43.28;28.10;;;10.30;99.90;;;;;;5014776;28;20046;-86
2023/04/08 15:41:18;;;;;;;40.90;28.52;;;10.70;99.90;;;;;;5015502;28;20099;-86
2023/04/08 15:44:10;;;;;;;45.78;28.77;;;11.40;99.90;;;;;;5048909;28;20046;-86
2023/04/08 15:46:38;;;;;;;43.20;29.50;;;9.80;99.90;;;;;;5013822;28;20049;-86
2023/04/08 15:49:25;;;;;;;44.60;28.98;;;11.10;99.90;;;;;;5061822;28;20110;-85
2023/04/08 15:52:15;;;;;;;48.72;30.67;;;10.30;99.90;;;;;;4999575;28;20060;-86
2023/04/08 15:55:09;;;;;;;44.58;29.98;;;10.30;99.90;;;;;;4998482;28;20152;-88
2023/04/08 15:58:26;;;;;;;44.38;29.73;;;10.40;99.90;;;;;;4998201;22;20054;-86
2023/04/08 16:01:18;;;;;;;44.13;29.52;;;10.20;99.90;;;;;;5091484;28;20047;-86
2023/04/08 16:03:44;;;;;;;44.88;27.90;;;9.50;99.90;;;;;;5094300;28;20097;-85
2023/04/08 16:06:29;;;;;;;40.45;26.25;;;11.80;99.90;;;;;;5091590;28;20036;-86
2023/04/08 16:09:17;;;;;;;;;;;;;;;;;;;;;
2023/04/08 16:12:02;;;;;;;37.40;25.52;;;10.10;99.90;;;;;;5085993;28;19915;-85
2023/04/08 16:14:28;;;;;;;40.10;26.80;;;10.10;99.90;;;;;;5108929;28;20055;-85
2023/04/08 16:17:12;;;;;;;39.35;27.08;;;10.10;99.90;;;;;;5094856;28;20161;-87